createdAt,value
2024-01-24T00:01:50.958Z,102515.03
2024-01-24T00:03:53.967Z,102508.91
2024-01-24T00:05:56.728Z,102514.13
2024-01-24T00:07:59.891Z,102506.28
2024-01-24T00:10:04.214Z,102510.63
2024-01-24T00:12:08.460Z,102517.50
2024-01-24T00:14:12.641Z,102519.19
2024-01-24T00:16:15.246Z,102511.34
2024-01-24T00:18:18.980Z,102507.91
2024-01-24T00:20:21.825Z,102505.22
2024-01-24T00:22:24.662Z,102497.34
2024-01-24T00:24:28.285Z,102499.06
2024-01-24T00:26:31.476Z,102497.31
2024-01-24T00:28:33.990Z,102487.72
2024-01-24T00:30:36.977Z,102483.34
2024-01-24T00:32:40.940Z,102488.50
2024-01-24T00:34:44.396Z,102501.50
2024-01-24T00:36:46.968Z,102489.25
2024-01-24T00:38:49.530Z,102491.84
2024-01-24T00:40:51.971Z,102493.56
2024-01-24T00:42:54.877Z,102495.34
2024-01-24T00:44:58.149Z,102498.78
2024-01-24T00:47:01.424Z,102493.56
2024-01-24T00:49:11.778Z,102493.41
2024-01-24T00:51:14.367Z,102489.91
2024-01-24T00:53:21.521Z,102498.56
2024-01-24T00:55:26.491Z,102489.00
2024-01-24T00:57:29.997Z,102481.97
2024-01-24T00:59:32.458Z,102491.50
2024-01-24T01:01:35.922Z,102481.81
2024-01-24T01:03:38.627Z,102486.22
2024-01-24T01:05:41.215Z,102482.66
2024-01-24T01:07:43.833Z,102493.91
2024-01-24T01:09:47.104Z,102495.59
2024-01-24T01:11:49.683Z,102497.19
2024-01-24T01:13:52.796Z,102492.78
2024-01-24T01:15:55.324Z,102507.44
2024-01-24T01:17:58.473Z,102499.56
2024-01-24T01:20:01.685Z,102502.13
2024-01-24T01:22:05.820Z,102502.88
2024-01-24T01:24:10.017Z,102505.47
2024-01-24T01:26:13.104Z,102499.31
2024-01-24T01:28:16.396Z,102499.25
2024-01-24T01:30:19.243Z,102476.50
2024-01-24T01:32:22.117Z,102489.53
2024-01-24T01:34:25.385Z,102479.84
2024-01-24T01:36:28.293Z,102489.38
2024-01-24T01:38:30.726Z,102486.66
2024-01-24T01:40:33.188Z,102484.91
2024-01-24T01:42:35.921Z,102497.91
2024-01-24T01:44:47.437Z,102495.13
2024-01-24T01:46:50.741Z,102490.81
2024-01-24T01:48:58.271Z,102481.06
2024-01-24T01:51:01.331Z,102494.88
2024-01-24T01:53:06.065Z,102487.75
2024-01-24T01:55:10.420Z,102493.81
2024-01-24T01:57:13.580Z,102485.03
2024-01-24T01:59:16.430Z,102492.88
2024-01-24T02:01:19.478Z,102489.25
2024-01-24T02:03:22.913Z,102493.59
2024-01-24T02:05:25.751Z,102490.94
2024-01-24T02:07:28.350Z,102486.50
2024-01-24T02:09:31.773Z,102489.00
2024-01-24T02:11:34.965Z,102486.34
2024-01-24T02:13:37.603Z,102481.91
2024-01-24T02:15:40.124Z,102474.88
2024-01-24T02:17:42.617Z,102469.72
2024-01-24T02:19:45.794Z,102472.94
2024-01-24T02:21:48.289Z,102478.13
2024-01-24T02:23:51.959Z,102493.63
2024-01-24T02:25:55.649Z,102490.97
2024-01-24T02:27:58.244Z,102482.25
2024-01-24T02:30:00.952Z,102495.16
2024-01-24T02:32:03.524Z,102498.59
2024-01-24T02:34:06.752Z,102494.09
2024-01-24T02:36:11.160Z,102493.09
2024-01-24T02:38:13.887Z,102487.09
2024-01-24T02:40:16.989Z,102482.63
2024-01-24T02:42:19.764Z,102471.28
2024-01-24T02:44:23.091Z,102478.19
2024-01-24T02:46:26.583Z,102473.91
2024-01-24T02:48:29.117Z,102468.66
2024-01-24T02:50:32.329Z,102486.72
2024-01-24T02:52:35.224Z,102493.56
2024-01-24T02:54:39.484Z,102502.22
2024-01-24T02:56:41.976Z,102500.47
2024-01-24T02:58:45.126Z,102484.72
2024-01-24T03:00:48.521Z,102493.22
2024-01-24T03:02:51.061Z,102494.91
2024-01-24T03:04:54.845Z,102501.88
2024-01-24T03:06:57.473Z,102504.28
2024-01-24T03:09:00.698Z,102507.78
2024-01-24T03:11:04.074Z,102513.75
2024-01-24T03:13:06.529Z,102514.59
2024-01-24T03:15:09.427Z,102496.13
2024-01-24T03:17:11.953Z,102507.47
2024-01-24T03:19:15.395Z,102490.09
2024-01-24T03:21:19.356Z,102489.13
2024-01-24T03:23:26.872Z,102469.13
2024-01-24T03:25:29.308Z,102472.56
2024-01-24T03:27:31.811Z,102479.53
2024-01-24T03:29:35.004Z,102489.06
2024-01-24T03:31:38.552Z,102479.53
2024-01-24T03:33:41.746Z,102476.78
2024-01-24T03:35:44.208Z,102464.50
2024-01-24T03:37:47.037Z,102462.78
2024-01-24T03:39:50.409Z,102474.84
2024-01-24T03:41:52.877Z,102467.06
2024-01-24T03:43:55.327Z,102469.59
2024-01-24T03:45:58.533Z,102480.66
2024-01-24T03:48:02.048Z,102481.50
2024-01-24T03:50:04.722Z,102478.94
2024-01-24T03:52:07.404Z,102472.63
2024-01-24T03:54:10.586Z,102471.03
2024-01-24T03:56:13.594Z,102462.19
2024-01-24T03:58:17.394Z,102476.09
2024-01-24T04:00:20.016Z,102489.03
2024-01-24T04:02:23.359Z,102475.94
2024-01-24T04:04:26.644Z,102472.47
2024-01-24T04:06:29.202Z,102460.31
2024-01-24T04:08:31.690Z,102453.44
2024-01-24T04:10:34.480Z,102453.41
2024-01-24T04:12:37.048Z,102451.56
2024-01-24T04:14:39.524Z,102438.34
2024-01-24T04:16:42.660Z,102448.56
2024-01-24T04:18:45.674Z,102452.88
2024-01-24T04:20:48.701Z,102444.25
2024-01-24T04:22:51.962Z,102437.31
2024-01-24T04:24:55.165Z,102425.78
2024-01-24T04:26:58.884Z,102425.72
2024-01-24T04:29:02.167Z,102420.22
2024-01-24T04:31:05.779Z,102439.38
2024-01-24T04:33:08.971Z,102433.94
2024-01-24T04:35:14.133Z,102444.22
2024-01-24T04:37:17.483Z,102437.41
2024-01-24T04:39:20.437Z,102431.25
2024-01-24T04:41:24.959Z,102434.63
2024-01-24T04:43:27.386Z,102442.09
2024-01-24T04:45:30.419Z,102447.38
2024-01-24T04:47:34.111Z,102460.22
2024-01-24T04:49:44.540Z,102454.13
2024-01-24T04:51:48.390Z,102436.81
2024-01-24T04:53:52.733Z,102423.69
2024-01-24T04:55:55.999Z,102419.34
2024-01-24T04:57:59.744Z,102415.81
2024-01-24T05:00:03.193Z,102416.75
2024-01-24T05:02:07.564Z,102415.03
2024-01-24T05:04:11.159Z,102418.41
2024-01-24T05:06:15.300Z,102404.41
2024-01-24T05:08:17.848Z,102390.31
2024-01-24T05:10:20.968Z,102388.63
2024-01-24T05:12:23.451Z,102378.19
2024-01-24T05:14:26.710Z,102373.84
2024-01-24T05:16:31.116Z,102364.16
2024-01-24T05:18:34.833Z,102357.84
2024-01-24T05:20:38.762Z,102369.06
2024-01-24T05:22:42.503Z,102370.81
2024-01-24T05:24:46.647Z,102350.81
2024-01-24T05:26:49.533Z,102361.97
2024-01-24T05:28:52.166Z,102361.84
2024-01-24T05:30:54.991Z,102362.69
2024-01-24T05:33:03.326Z,102357.69
2024-01-24T05:35:06.470Z,102354.91
2024-01-24T05:37:08.981Z,102354.00
2024-01-24T05:39:11.708Z,102353.06
2024-01-24T05:41:14.157Z,102358.16
2024-01-24T05:43:17.169Z,102352.81
2024-01-24T05:45:19.938Z,102354.63
2024-01-24T05:47:22.876Z,102346.84
2024-01-24T05:49:25.644Z,102333.63
2024-01-24T05:51:29.438Z,102343.09
2024-01-24T05:53:31.974Z,102347.31
2024-01-24T05:55:34.434Z,102336.06
2024-01-24T05:57:41.343Z,102327.28
2024-01-24T05:59:44.353Z,102332.41
2024-01-24T06:01:47.000Z,102324.63
2024-01-24T06:03:49.659Z,102334.78
2024-01-24T06:05:53.012Z,102329.50
2024-01-24T06:07:55.697Z,102333.50
2024-01-24T06:09:59.198Z,102343.81
2024-01-24T06:12:02.863Z,102339.31
2024-01-24T06:14:05.970Z,102338.38
2024-01-24T06:16:08.508Z,102346.09
2024-01-24T06:18:10.992Z,102346.97
2024-01-24T06:20:14.145Z,102333.09
2024-01-24T06:22:17.372Z,102333.19
2024-01-24T06:24:20.861Z,102328.63
2024-01-24T06:26:23.881Z,102330.38
2024-01-24T06:28:26.369Z,102331.13
2024-01-24T06:30:31.121Z,102322.16
2024-01-24T06:32:34.737Z,102355.97
2024-01-24T06:34:37.783Z,102354.06
2024-01-24T06:36:40.746Z,102344.41
2024-01-24T06:38:46.060Z,102340.09
2024-01-24T06:40:49.400Z,102341.00
2024-01-24T06:42:52.370Z,102341.88
2024-01-24T06:44:56.624Z,102334.09
2024-01-24T06:46:59.085Z,102316.75
2024-01-24T06:49:01.972Z,102314.16
2024-01-24T06:51:06.487Z,102314.13
2024-01-24T06:53:12.297Z,102312.19
2024-01-24T06:55:17.457Z,102315.41
2024-01-24T06:57:20.108Z,102309.22
2024-01-24T06:59:23.172Z,102317.16
2024-01-24T07:01:30.436Z,102307.59
2024-01-24T07:03:34.478Z,102318.19
2024-01-24T07:05:45.686Z,102288.19
2024-01-24T07:07:54.200Z,102291.72
2024-01-24T07:09:56.938Z,102299.66
2024-01-24T07:12:03.111Z,102308.22
2024-01-24T07:14:06.574Z,102309.94
2024-01-24T07:16:11.573Z,102308.28
2024-01-24T07:18:18.402Z,102310.72
2024-01-24T07:20:21.640Z,102310.72
2024-01-24T07:22:24.139Z,102307.25
2024-01-24T07:24:27.272Z,102309.00
2024-01-24T07:26:30.108Z,102309.72
2024-01-24T07:28:34.209Z,102312.38
2024-01-24T07:30:38.085Z,102317.59
2024-01-24T07:32:42.891Z,102315.72
2024-01-24T07:34:45.538Z,102313.19
2024-01-24T07:36:48.161Z,102307.16
2024-01-24T07:38:50.629Z,102299.44
2024-01-24T07:40:53.097Z,102302.78
2024-01-24T07:42:57.681Z,102305.38
2024-01-24T07:45:01.960Z,102297.50
2024-01-24T07:47:06.567Z,102285.47
2024-01-24T07:49:10.480Z,102284.69
2024-01-24T07:51:13.098Z,102281.09
2024-01-24T07:53:15.998Z,102278.34
2024-01-24T07:55:25.144Z,102282.53
2024-01-24T07:57:35.900Z,102290.41
2024-01-24T07:59:38.460Z,102280.94
2024-01-24T08:01:41.753Z,102278.13
2024-01-24T08:03:45.716Z,102269.22
2024-01-24T08:05:50.008Z,102267.28
2024-01-24T08:07:52.915Z,102268.03
2024-01-24T08:09:55.474Z,102275.06
2024-01-24T08:11:58.133Z,102258.59
2024-01-24T08:14:00.631Z,102260.47
2024-01-24T08:16:04.994Z,102262.19
2024-01-24T08:18:10.047Z,102253.53
2024-01-24T08:20:13.595Z,102256.22
2024-01-24T08:22:16.656Z,102243.13
2024-01-24T08:24:19.531Z,102243.13
2024-01-24T08:26:22.051Z,102235.09
2024-01-24T08:28:25.024Z,102240.47
2024-01-24T08:30:28.046Z,102237.78
2024-01-24T08:32:30.520Z,102244.06
2024-01-24T08:34:33.942Z,102244.84
2024-01-24T08:36:37.452Z,102247.53
2024-01-24T08:38:39.933Z,102245.72
2024-01-24T08:40:43.031Z,102250.06
2024-01-24T08:42:46.706Z,102248.25
2024-01-24T08:44:49.212Z,102251.78
2024-01-24T08:46:52.637Z,102248.28
2024-01-24T08:48:55.143Z,102250.66
2024-01-24T08:50:58.386Z,102236.75
2024-01-24T08:53:00.845Z,102247.25
2024-01-24T08:55:04.316Z,102250.44
2024-01-24T08:57:08.336Z,102247.91
2024-01-24T08:59:11.509Z,102240.94
2024-01-24T09:01:15.014Z,102231.41
2024-01-24T09:03:17.960Z,102236.63
2024-01-24T09:05:22.629Z,102231.53
2024-01-24T09:07:25.116Z,102236.69
2024-01-24T09:09:29.375Z,102229.66
2024-01-24T09:11:38.263Z,102231.34
2024-01-24T09:13:48.831Z,102234.81
2024-01-24T09:15:52.049Z,102223.53
2024-01-24T09:17:54.613Z,102218.25
2024-01-24T09:19:58.186Z,102213.09
2024-01-24T09:22:02.714Z,102208.81
2024-01-24T09:24:06.404Z,102193.25
2024-01-24T09:26:09.324Z,102193.25
2024-01-24T09:28:12.122Z,102201.81
2024-01-24T09:30:15.088Z,102193.22
2024-01-24T09:32:17.648Z,102186.25
2024-01-24T09:34:20.167Z,102190.41
2024-01-24T09:36:24.802Z,102187.63
2024-01-24T09:38:27.296Z,102188.66
2024-01-24T09:40:30.509Z,102189.44
2024-01-24T09:42:37.606Z,102204.00
2024-01-24T09:44:40.876Z,102204.66
2024-01-24T09:46:44.892Z,102202.03
2024-01-24T09:48:49.080Z,102202.84
2024-01-24T09:50:52.402Z,102207.13
2024-01-24T09:52:58.401Z,102198.47
2024-01-24T09:55:06.887Z,102193.25
2024-01-24T09:57:11.410Z,102188.69
2024-01-24T09:59:14.843Z,102178.13
2024-01-24T10:01:18.790Z,102164.41
2024-01-24T10:03:22.436Z,102169.72
2024-01-24T10:05:28.194Z,102148.78
2024-01-24T10:07:31.112Z,102151.38
2024-01-24T10:09:34.158Z,102152.97
2024-01-24T10:11:36.879Z,102135.81
2024-01-24T10:13:39.845Z,102128.84
2024-01-24T10:15:43.503Z,102123.53
2024-01-24T10:17:48.483Z,102137.31
2024-01-24T10:19:53.177Z,102120.91
2024-01-24T10:21:55.887Z,102117.66
2024-01-24T10:24:01.290Z,102118.31
2024-01-24T10:26:03.942Z,102127.06
2024-01-24T10:28:14.839Z,102124.50
2024-01-24T10:30:18.038Z,102128.78
2024-01-24T10:32:22.057Z,102126.06
2024-01-24T10:34:30.127Z,102139.97
2024-01-24T10:36:34.902Z,102139.91
2024-01-24T10:38:43.013Z,102143.19
2024-01-24T10:40:46.227Z,102144.97
2024-01-24T10:42:55.397Z,102131.16
2024-01-24T10:45:00.436Z,102132.72
2024-01-24T10:47:07.094Z,102150.13
2024-01-24T10:49:14.848Z,102154.41
2024-01-24T10:51:20.296Z,102157.81
2024-01-24T10:53:24.619Z,102150.94
2024-01-24T10:55:29.100Z,102150.25
2024-01-24T10:57:36.754Z,102152.53
2024-01-24T10:59:41.028Z,102148.16
2024-01-24T11:01:43.960Z,102157.75
2024-01-24T11:03:50.828Z,102165.41
2024-01-24T11:05:57.493Z,102168.84
2024-01-24T11:08:11.735Z,102170.69
2024-01-24T11:10:19.995Z,102182.78
2024-01-24T11:12:23.052Z,102186.22
2024-01-24T11:14:36.386Z,102181.00
2024-01-24T11:16:41.210Z,102173.09
2024-01-24T11:18:44.884Z,102192.22
2024-01-24T11:20:56.269Z,102167.75
2024-01-24T11:22:59.288Z,102184.31
2024-01-24T11:25:02.035Z,102184.34
2024-01-24T11:27:04.988Z,102175.38
2024-01-24T11:29:14.388Z,102179.72
2024-01-24T11:31:36.876Z,102173.75
2024-01-24T11:34:15.447Z,102175.63
2024-01-24T11:36:18.748Z,102166.94
2024-01-24T11:38:27.171Z,102164.56
2024-01-24T11:40:37.523Z,102155.94
2024-01-24T11:42:44.903Z,102158.41
2024-01-24T11:44:49.017Z,102163.75
2024-01-24T11:46:53.349Z,102154.97
2024-01-24T11:48:56.517Z,102151.56
2024-01-24T11:51:04.262Z,102149.91
2024-01-24T11:53:06.977Z,102146.28
2024-01-24T11:55:10.126Z,102162.00
2024-01-24T11:57:13.428Z,102143.75
2024-01-24T11:59:21.688Z,102151.59
2024-01-24T12:01:24.526Z,102142.16
2024-01-24T12:03:27.874Z,102143.19
2024-01-24T12:05:31.132Z,102128.47
2024-01-24T12:07:33.834Z,102138.97
2024-01-24T12:09:36.690Z,102137.28
2024-01-24T12:11:39.177Z,102133.88
2024-01-24T12:13:42.307Z,102123.38
2024-01-24T12:15:46.016Z,102127.59
2024-01-24T12:17:48.802Z,102137.97
2024-01-24T12:19:52.510Z,102131.59
2024-01-24T12:21:55.825Z,102133.31
2024-01-24T12:23:58.547Z,102157.81
2024-01-24T12:26:01.205Z,102150.00
2024-01-24T12:28:05.080Z,102143.16
2024-01-24T12:30:11.126Z,102139.56
2024-01-24T12:32:16.302Z,102142.28
2024-01-24T12:34:23.177Z,102145.72
2024-01-24T12:36:26.111Z,102142.38
2024-01-24T12:38:28.638Z,102121.66
2024-01-24T12:40:33.081Z,102117.22
2024-01-24T12:42:35.910Z,102119.91
2024-01-24T12:44:39.794Z,102108.47
2024-01-24T12:46:43.076Z,102106.06
2024-01-24T12:48:49.115Z,102106.16
2024-01-24T12:50:53.087Z,102105.06
2024-01-24T12:52:56.997Z,102106.94
2024-01-24T12:54:59.882Z,102114.69
2024-01-24T12:57:03.323Z,102101.78
2024-01-24T12:59:06.372Z,102109.69
2024-01-24T13:01:09.002Z,102119.97
2024-01-24T13:03:11.642Z,102113.84
2024-01-24T13:05:14.774Z,102114.97
2024-01-24T13:07:17.571Z,102110.50
2024-01-24T13:09:20.273Z,102114.84
2024-01-24T13:11:23.627Z,102110.66
2024-01-24T13:13:26.269Z,102128.75
2024-01-24T13:15:29.851Z,102137.47
2024-01-24T13:17:32.389Z,102122.84
2024-01-24T13:19:35.408Z,102123.78
2024-01-24T13:21:42.764Z,102128.84
2024-01-24T13:23:46.344Z,102139.16
2024-01-24T13:25:48.975Z,102137.78
2024-01-24T13:27:53.095Z,102130.97
2024-01-24T13:29:55.874Z,102134.44
2024-01-24T13:31:58.640Z,102126.69
2024-01-24T13:34:01.214Z,102124.22
2024-01-24T13:36:04.339Z,102111.03
2024-01-24T13:38:06.924Z,102115.38
2024-01-24T13:40:11.011Z,102129.38
2024-01-24T13:42:14.304Z,102121.56
2024-01-24T13:44:16.900Z,102109.69
2024-01-24T13:46:20.149Z,102084.47
2024-01-24T13:48:23.693Z,102110.69
2024-01-24T13:50:26.974Z,102115.88
2024-01-24T13:52:29.635Z,102107.19
2024-01-24T13:54:32.631Z,102107.44
2024-01-24T13:56:36.911Z,102105.84
2024-01-24T13:58:39.513Z,102086.88
2024-01-24T14:00:43.544Z,102082.63
2024-01-24T14:02:47.388Z,102082.59
2024-01-24T14:04:51.254Z,102076.59
2024-01-24T14:06:54.097Z,102087.09
2024-01-24T14:08:57.252Z,102086.25
2024-01-24T14:11:01.124Z,102087.25
2024-01-24T14:13:04.376Z,102080.34
2024-01-24T14:15:15.366Z,102080.38
2024-01-24T14:17:27.456Z,102084.78
2024-01-24T14:19:30.189Z,102087.34
2024-01-24T14:21:34.021Z,102085.75
2024-01-24T14:23:36.539Z,102077.22
2024-01-24T14:25:39.216Z,102067.81
2024-01-24T14:27:42.938Z,102073.09
2024-01-24T14:29:46.466Z,102073.09
2024-01-24T14:31:49.422Z,102067.22
2024-01-24T14:33:54.329Z,102055.09
2024-01-24T14:35:57.558Z,102061.19
2024-01-24T14:38:01.629Z,102075.16
2024-01-24T14:40:05.068Z,102062.78
2024-01-24T14:42:11.510Z,102070.81
2024-01-24T14:44:14.442Z,102072.81
2024-01-24T14:46:17.787Z,102074.66
2024-01-24T14:48:21.671Z,102077.34
2024-01-24T14:50:24.658Z,102060.06
2024-01-24T14:52:27.241Z,102078.28
2024-01-24T14:54:30.242Z,102073.22
2024-01-24T14:56:33.889Z,102069.81
2024-01-24T14:58:38.241Z,102065.50
2024-01-24T15:00:41.529Z,102076.91
2024-01-24T15:02:45.223Z,102071.75
2024-01-24T15:04:48.529Z,102066.56
2024-01-24T15:06:51.603Z,102061.59
2024-01-24T15:08:54.883Z,102064.22
2024-01-24T15:10:57.873Z,102061.63
2024-01-24T15:13:00.936Z,102059.88
2024-01-24T15:15:05.758Z,102053.09
2024-01-24T15:17:08.326Z,102048.84
2024-01-24T15:19:11.599Z,102034.97
2024-01-24T15:21:15.422Z,102047.09
2024-01-24T15:23:19.130Z,102041.03
2024-01-24T15:25:22.912Z,102048.16
2024-01-24T15:27:27.264Z,102028.91
2024-01-24T15:29:30.306Z,102029.91
2024-01-24T15:31:32.907Z,102036.94
2024-01-24T15:33:36.290Z,102028.41
2024-01-24T15:35:39.826Z,102026.66
2024-01-24T15:37:44.689Z,102035.53
2024-01-24T15:39:49.813Z,102017.38
2024-01-24T15:41:54.118Z,102027.00
2024-01-24T15:43:57.311Z,102022.72
2024-01-24T15:46:00.561Z,102028.75
2024-01-24T15:48:04.032Z,102022.81
2024-01-24T15:50:07.013Z,102016.06
2024-01-24T15:52:09.761Z,102014.34
2024-01-24T15:54:13.662Z,102010.00
2024-01-24T15:56:16.287Z,102011.94
2024-01-24T15:58:19.913Z,101998.09
2024-01-24T16:00:23.668Z,102004.22
2024-01-24T16:02:27.256Z,102006.72
2024-01-24T16:04:32.063Z,102019.84
2024-01-24T16:06:37.104Z,102001.63
2024-01-24T16:08:40.141Z,101993.09
2024-01-24T16:10:44.078Z,101986.22
2024-01-24T16:12:47.168Z,101975.03
2024-01-24T16:14:51.245Z,101967.34
2024-01-24T16:16:58.711Z,101966.53
2024-01-24T16:19:01.968Z,101952.69
2024-01-24T16:21:05.992Z,101953.63
2024-01-24T16:23:08.569Z,101956.31
2024-01-24T16:25:11.608Z,101947.69
2024-01-24T16:27:15.492Z,101944.19
2024-01-24T16:29:18.381Z,101941.72
2024-01-24T16:31:21.795Z,101940.94
2024-01-24T16:33:24.890Z,101932.31
2024-01-24T16:35:28.273Z,101932.41
2024-01-24T16:37:32.014Z,101928.09
2024-01-24T16:39:34.454Z,101928.09
2024-01-24T16:41:37.401Z,101937.75
2024-01-24T16:43:40.027Z,101929.13
2024-01-24T16:45:42.567Z,101923.94
2024-01-24T16:47:46.781Z,101921.47
2024-01-24T16:49:50.109Z,101915.44
2024-01-24T16:51:53.171Z,101907.56
2024-01-24T16:53:56.884Z,101910.28
2024-01-24T16:56:02.210Z,101906.81
2024-01-24T16:58:06.328Z,101916.38
2024-01-24T17:00:10.993Z,101905.16
2024-01-24T17:02:14.190Z,101907.75
2024-01-24T17:04:17.510Z,101904.25
2024-01-24T17:06:20.994Z,101906.00
2024-01-24T17:08:24.183Z,101906.03
2024-01-24T17:10:26.974Z,101907.78
2024-01-24T17:12:32.169Z,101912.03
2024-01-24T17:14:35.718Z,101907.75
2024-01-24T17:16:39.411Z,101882.56
2024-01-24T17:18:42.553Z,101906.13
2024-01-24T17:20:47.401Z,101892.28
2024-01-24T17:22:53.007Z,101892.28
2024-01-24T17:24:56.974Z,101893.22
2024-01-24T17:27:00.331Z,101888.09
2024-01-24T17:29:03.637Z,101881.16
2024-01-24T17:31:06.735Z,101875.19
2024-01-24T17:33:10.449Z,101848.13
2024-01-24T17:35:13.488Z,101846.50
2024-01-24T17:37:16.571Z,101863.09
2024-01-24T17:39:20.201Z,101853.53
2024-01-24T17:41:24.064Z,101848.34
2024-01-24T17:43:26.987Z,101840.59
2024-01-24T17:45:29.483Z,101834.50
2024-01-24T17:47:35.033Z,101821.47
2024-01-24T17:49:39.136Z,101819.75
2024-01-24T17:51:42.526Z,101816.41
2024-01-24T17:53:45.392Z,101819.06
2024-01-24T17:55:50.477Z,101819.91
2024-01-24T17:57:53.505Z,101813.00
2024-01-24T17:59:58.323Z,101800.03
2024-01-24T18:02:01.748Z,101799.19
2024-01-24T18:04:06.290Z,101794.78
2024-01-24T18:06:09.511Z,101781.75
2024-01-24T18:08:12.943Z,101782.66
2024-01-24T18:10:16.980Z,101789.66
2024-01-24T18:12:20.211Z,101794.94
2024-01-24T18:14:23.417Z,101792.28
2024-01-24T18:16:27.052Z,101798.34
2024-01-24T18:18:29.704Z,101786.31
2024-01-24T18:20:33.984Z,101789.84
2024-01-24T18:22:37.145Z,101791.47
2024-01-24T18:24:39.644Z,101789.84
2024-01-24T18:26:43.254Z,101784.66
2024-01-24T18:28:46.135Z,101779.50
2024-01-24T18:30:50.598Z,101786.44
2024-01-24T18:32:53.543Z,101788.97
2024-01-24T18:34:57.014Z,101781.28
2024-01-24T18:37:00.149Z,101767.41
2024-01-24T18:39:03.482Z,101760.56
2024-01-24T18:41:06.661Z,101757.94
2024-01-24T18:43:11.017Z,101748.47
2024-01-24T18:45:16.031Z,101757.97
2024-01-24T18:47:20.982Z,101732.78
2024-01-24T18:49:24.578Z,101729.38
2024-01-24T18:51:27.447Z,101725.72
2024-01-24T18:53:30.476Z,101731.09
2024-01-24T18:55:34.115Z,101725.06
2024-01-24T18:57:38.092Z,101736.25
2024-01-24T18:59:41.130Z,101745.91
2024-01-24T19:01:44.285Z,101732.03
2024-01-24T19:03:49.516Z,101740.69
2024-01-24T19:05:53.622Z,101729.44
2024-01-24T19:07:56.682Z,101753.75
2024-01-24T19:10:00.159Z,101750.25
2024-01-24T19:12:04.233Z,101759.84
2024-01-24T19:14:07.540Z,101743.34
2024-01-24T19:16:12.489Z,101738.88
2024-01-24T19:18:22.798Z,101754.59
2024-01-24T19:20:27.682Z,101757.25
2024-01-24T19:22:30.981Z,101752.91
2024-01-24T19:24:35.728Z,101754.69
2024-01-24T19:26:42.178Z,101734.72
2024-01-24T19:28:47.676Z,101716.59
2024-01-24T19:30:50.675Z,101729.66
2024-01-24T19:32:53.562Z,101720.16
2024-01-24T19:35:06.559Z,101716.72
2024-01-24T19:37:09.980Z,101708.84
2024-01-24T19:39:13.190Z,101712.38
2024-01-24T19:41:15.715Z,101714.91
2024-01-24T19:43:18.586Z,101724.53
2024-01-24T19:45:21.981Z,101728.84
2024-01-24T19:47:31.194Z,101721.91
2024-01-24T19:49:34.220Z,101728.03
2024-01-24T19:51:37.175Z,101709.75
2024-01-24T19:53:41.854Z,101713.28
2024-01-24T19:55:44.396Z,101707.31
2024-01-24T19:57:50.135Z,101699.56
2024-01-24T19:59:53.585Z,101704.72
2024-01-24T20:01:56.483Z,101713.41
2024-01-24T20:03:58.983Z,101715.16
2024-01-24T20:06:04.933Z,101716.03
2024-01-24T20:08:07.444Z,101716.03
2024-01-24T20:10:10.901Z,101692.59
2024-01-24T20:12:13.383Z,101699.59
2024-01-24T20:14:16.482Z,101703.03
2024-01-24T20:16:19.669Z,101715.25
2024-01-24T20:18:22.987Z,101701.47
2024-01-24T20:20:25.894Z,101693.69
2024-01-24T20:22:29.421Z,101687.63
2024-01-24T20:24:31.900Z,101685.03
2024-01-24T20:26:34.854Z,101683.31
2024-01-24T20:28:39.059Z,101680.75
2024-01-24T20:30:41.558Z,101666.06
2024-01-24T20:32:49.219Z,101654.75
2024-01-24T20:34:59.961Z,101656.50
2024-01-24T20:37:04.050Z,101651.28
2024-01-24T20:39:07.458Z,101658.31
2024-01-24T20:41:11.570Z,101640.09
2024-01-24T20:43:14.430Z,101643.53
2024-01-24T20:45:16.900Z,101646.13
2024-01-24T20:47:20.885Z,101643.56
2024-01-24T20:49:23.437Z,101639.19
2024-01-24T20:51:25.959Z,101628.81
2024-01-24T20:53:28.423Z,101631.44
2024-01-24T20:55:31.642Z,101630.56
2024-01-24T20:57:36.177Z,101629.75
2024-01-24T20:59:39.189Z,101626.31
2024-01-24T21:01:42.218Z,101632.31
2024-01-24T21:03:46.831Z,101633.97
2024-01-24T21:05:50.122Z,101634.03
2024-01-24T21:07:53.239Z,101614.88
2024-01-24T21:09:56.464Z,101634.03
2024-01-24T21:11:59.812Z,101614.97
2024-01-24T21:14:03.284Z,101616.75
2024-01-24T21:16:06.662Z,101615.00
2024-01-24T21:18:11.056Z,101607.16
2024-01-24T21:20:14.550Z,101592.47
2024-01-24T21:22:19.324Z,101606.38
2024-01-24T21:24:22.768Z,101620.19
2024-01-24T21:26:25.834Z,101609.88
2024-01-24T21:28:29.017Z,101606.38
2024-01-24T21:30:32.373Z,101598.56
2024-01-24T21:32:35.581Z,101589.91
2024-01-24T21:34:38.093Z,101589.06
2024-01-24T21:36:47.591Z,101584.72
2024-01-24T21:38:51.231Z,101586.50
2024-01-24T21:40:54.482Z,101575.19
2024-01-24T21:42:57.452Z,101583.81
2024-01-24T21:45:00.435Z,101586.47
2024-01-24T21:47:03.446Z,101596.00
2024-01-24T21:49:05.996Z,101578.69
2024-01-24T21:51:10.512Z,101576.09
2024-01-24T21:53:13.309Z,101570.97
2024-01-24T21:55:16.541Z,101573.56
2024-01-24T21:57:22.241Z,101580.47
2024-01-24T21:59:25.203Z,101582.22
2024-01-24T22:01:35.125Z,101565.72
2024-01-24T22:03:39.255Z,101557.09
2024-01-24T22:05:42.162Z,101552.72
2024-01-24T22:07:45.036Z,101564.06
2024-01-24T22:09:51.395Z,101563.16
2024-01-24T22:11:54.609Z,101552.81
2024-01-24T22:13:57.119Z,101565.81
2024-01-24T22:16:00.697Z,101557.13
2024-01-24T22:18:04.107Z,101550.19
2024-01-24T22:20:10.476Z,101535.47
2024-01-24T22:22:14.089Z,101536.38
2024-01-24T22:24:17.551Z,101532.00
2024-01-24T22:26:22.263Z,101526.78
2024-01-24T22:28:25.281Z,101538.94
2024-01-24T22:30:28.335Z,101527.63
2024-01-24T22:32:31.533Z,101527.66
2024-01-24T22:34:34.642Z,101517.28
2024-01-24T22:36:37.804Z,101537.25
2024-01-24T22:38:40.541Z,101531.16
2024-01-24T22:40:46.708Z,101519.91
2024-01-24T22:42:50.100Z,101528.63
2024-01-24T22:44:53.290Z,101531.13
2024-01-24T22:46:56.499Z,101531.16
2024-01-24T22:48:59.825Z,101543.38
2024-01-24T22:51:02.949Z,101543.34
2024-01-24T22:53:06.505Z,101529.53
2024-01-24T22:55:10.241Z,101509.66
2024-01-24T22:57:14.154Z,101523.50
2024-01-24T22:59:17.319Z,101530.44
2024-01-24T23:01:19.985Z,101532.22
2024-01-24T23:03:22.598Z,101515.75
2024-01-24T23:05:25.069Z,101521.84
2024-01-24T23:07:27.597Z,101520.97
2024-01-24T23:09:30.259Z,101515.75
2024-01-24T23:11:33.689Z,101508.03
2024-01-24T23:13:36.497Z,101513.22
2024-01-24T23:15:39.636Z,101508.88
2024-01-24T23:17:42.976Z,101503.69
2024-01-24T23:19:46.327Z,101482.94
2024-01-24T23:21:49.535Z,101489.03
2024-01-24T23:23:52.659Z,101489.91
2024-01-24T23:25:55.595Z,101486.44
2024-01-24T23:27:58.499Z,101476.94
2024-01-24T23:30:01.022Z,101479.53
2024-01-24T23:32:03.786Z,101475.22
2024-01-24T23:34:07.181Z,101473.50